Time;durP1;ratioP1;P1;durP2;ratioP2;P2;SDS_P1;SDS_P2;PMS_P1;PMS_P2;Temp;Humidity;BMP_temperature;BMP_pressure;BME280_temperature;BME280_humidity;BME280_pressure;Samples;Min_cycle;Max_cycle;Signal;HPM_P1;HPM_P2
2022/04/18 00:02:18;;;;;;;;;1.00;1.00;;;;;17.52;26.72;101104.47;5055377;28;45282;-52
2022/04/18 00:04:43;;;;;;;;;1.25;1.25;;;;;17.74;26.83;101135.13;5055048;28;45727;-53
2022/04/18 00:07:10;;;;;;;;;1.00;1.00;;;;;17.73;26.67;101139.81;5054982;28;45851;-47
2022/04/18 00:09:36;;;;;;;;;1.20;1.20;;;;;17.67;26.81;101135.28;5037024;28;45383;-53
2022/04/18 00:12:02;;;;;;;;;2.00;2.00;;;;;17.41;27.02;101087.66;5055210;28;45361;-51
2022/04/18 00:14:27;;;;;;;;;1.25;1.25;;;;;17.58;27.08;101120.97;5054511;28;45385;-48
2022/04/18 00:16:53;;;;;;;;;3.00;1.00;;;;;17.58;27.09;101126.53;5030871;28;45759;-52
2022/04/18 00:19:18;;;;;;;;;0.75;0.75;;;;;17.54;26.92;101124.47;5042140;28;45356;-51
2022/04/18 00:21:44;;;;;;;;;1.50;1.00;;;;;17.30;27.28;101085.78;5037097;28;45569;-50
2022/04/18 00:24:11;;;;;;;;;1.00;1.00;;;;;17.54;27.35;101110.59;5036674;28;45976;-53
2022/04/18 00:26:39;;;;;;;;;4.40;2.00;;;;;17.47;27.14;101117.16;5054984;28;46019;-48
2022/04/18 00:29:05;;;;;;;;;1.00;1.00;;;;;17.44;27.13;101114.03;5054747;28;45432;-51
2022/04/18 00:31:31;;;;;;;;;1.00;1.00;;;;;17.47;27.17;101113.56;5003803;28;45537;-57
2022/04/18 00:33:56;;;;;;;;;1.00;1.00;;;;;17.42;27.16;101105.13;5053420;28;47422;-51
2022/04/18 00:36:22;;;;;;;;;1.00;1.00;;;;;17.48;27.13;101113.31;5054314;28;45369;-51
2022/04/18 00:38:47;;;;;;;;;1.00;1.00;;;;;17.23;27.24;101072.06;5036941;28;45402;-48
2022/04/18 00:41:13;;;;;;;;;2.00;1.00;;;;;17.45;27.26;101108.25;5036699;28;45400;-48
2022/04/18 00:43:46;;;;;;;;;1.00;1.00;;;;;17.43;27.03;101107.66;5054237;28;45330;-48
2022/04/18 00:46:12;;;;;;;;;3.00;2.00;;;;;17.43;26.96;101104.91;5054736;28;45350;-49
2022/04/18 00:48:38;;;;;;;;;1.00;1.00;;;;;17.42;27.10;101102.34;5054516;28;45784;-49
2022/04/18 00:51:04;;;;;;;;;1.00;1.00;;;;;17.27;26.76;101075.16;5054857;28;45291;-47
2022/04/18 00:53:30;;;;;;;;;2.00;2.00;;;;;17.15;26.71;101053.06;5057524;28;46657;-47
2022/04/18 00:55:56;;;;;;;;;2.00;2.00;;;;;17.37;27.14;101094.78;5039914;28;45837;-50
2022/04/18 00:58:22;;;;;;;;;3.00;1.50;;;;;17.35;27.00;101096.97;5039737;28;45482;-48
2022/04/18 01:00:47;;;;;;;;;2.00;2.00;;;;;17.24;26.72;101084.81;5023200;28;45485;-48
2022/04/18 01:03:13;;;;;;;;;2.00;2.00;;;;;17.28;26.83;101096.28;5057691;28;46360;-48
2022/04/18 01:05:38;;;;;;;;;1.00;1.00;;;;;17.17;26.84;101085.00;5057879;28;45328;-47
2022/04/18 01:08:05;;;;;;;;;2.25;2.25;;;;;16.40;26.99;100956.81;5039599;28;45323;-49
2022/04/18 01:10:30;;;;;;;;;1.20;1.20;;;;;17.13;26.63;101092.13;5023449;28;45571;-49
2022/04/18 01:12:56;;;;;;;;;3.75;1.75;;;;;17.04;27.04;101079.75;5057210;28;45922;-48
2022/04/18 01:15:21;;;;;;;;;2.50;1.00;;;;;17.03;27.03;101086.38;5073344;28;45469;-52
2022/04/18 01:17:47;;;;;;;;;2.00;2.00;;;;;17.05;27.22;101086.97;5073557;28;45393;-50
2022/04/18 01:20:12;;;;;;;;;5.00;2.00;;;;;17.07;27.44;101085.63;5057601;28;45410;-51
2022/04/18 01:22:38;;;;;;;;;3.25;2.00;;;;;17.05;27.35;101081.44;5057682;28;46400;-48
2022/04/18 01:30:32;;;;;;;;;2.80;2.00;;;;;16.94;27.20;101070.13;5056592;28;45371;-48
2022/04/18 01:32:57;;;;;;;;;2.00;1.25;;;;;16.86;27.27;101045.53;5055759;28;46762;-51
2022/04/18 01:35:23;;;;;;;;;1.00;1.00;;;;;17.00;26.85;101075.75;5054788;28;45439;-51
2022/04/18 01:37:48;;;;;;;;;2.00;2.00;;;;;16.97;27.40;101070.72;5053408;28;45308;-47
2022/04/18 01:40:14;;;;;;;;;1.75;1.00;;;;;16.65;27.38;101025.72;5057124;28;45518;-48
2022/04/18 01:42:39;;;;;;;;;2.50;2.00;;;;;16.96;27.61;101072.63;5071500;28;46208;-49
2022/04/18 01:45:05;;;;;;;;;1.25;1.25;;;;;16.93;27.50;101068.41;5055601;28;45342;-49
2022/04/18 01:47:31;;;;;;;;;2.00;2.00;;;;;16.68;27.74;101021.63;5055074;28;45466;-50
2022/04/18 01:49:56;;;;;;;;;2.00;2.00;;;;;16.79;27.40;101051.25;5052641;28;45433;-48
2022/04/18 01:52:22;;;;;;;;;2.00;2.00;;;;;16.73;27.79;101038.38;5038916;28;46195;-49
2022/04/18 01:54:47;;;;;;;;;3.00;1.50;;;;;16.87;28.03;101061.06;5057028;28;45263;-50
2022/04/18 01:57:13;;;;;;;;;2.00;2.00;;;;;16.83;27.30;101065.44;5021887;28;45426;-48
2022/04/18 01:59:42;;;;;;;;;0.00;0.00;;;;;16.79;27.90;101058.72;5039248;28;45500;-51
2022/04/18 02:02:07;;;;;;;;;4.00;3.00;;;;;16.72;27.66;101058.00;5056784;28;45709;-49
2022/04/18 02:04:33;;;;;;;;;2.00;2.00;;;;;16.71;27.55;101053.56;5055655;28;45352;-49
2022/04/18 02:06:58;;;;;;;;;1.25;1.25;;;;;16.45;28.25;101011.47;5057039;28;45315;-49
2022/04/18 02:09:24;;;;;;;;;1.25;1.25;;;;;16.64;28.32;101060.09;5056549;28;45433;-52
2022/04/18 02:11:49;;;;;;;;;1.50;1.50;;;;;16.63;28.19;101060.31;5056638;28;46506;-50
2022/04/18 02:14:15;;;;;;;;;1.25;1.25;;;;;16.60;28.24;101053.34;5056195;28;45469;-51
2022/04/18 02:16:41;;;;;;;;;2.40;2.00;;;;;16.59;28.30;101056.38;5057061;28;45417;-51
2022/04/18 02:19:06;;;;;;;;;2.00;2.00;;;;;16.45;28.57;101025.31;5056717;28;45500;-52
2022/04/18 02:21:32;;;;;;;;;1.75;1.75;;;;;16.58;28.32;101051.88;5056346;28;46381;-48
2022/04/18 02:23:57;;;;;;;;;1.50;1.50;;;;;16.46;28.54;101051.94;5056693;28;45359;-52
2022/04/18 02:26:23;;;;;;;;;1.25;1.25;;;;;16.48;28.39;101053.38;5056577;28;45440;-53
2022/04/18 02:28:48;;;;;;;;;2.00;2.00;;;;;16.41;28.19;101033.28;5056929;28;45492;-52
2022/04/18 02:31:14;;;;;;;;;2.00;2.00;;;;;16.48;28.73;101046.97;5056278;28;46454;-53
2022/04/18 02:33:39;;;;;;;;;2.75;2.00;;;;;16.20;28.46;100993.22;4976840;28;45553;-48
2022/04/18 02:36:04;;;;;;;;;2.00;2.00;;;;;16.45;28.63;101045.56;5055583;28;45276;-48
2022/04/18 02:38:30;;;;;;;;;1.00;1.00;;;;;16.43;28.96;101038.56;5056593;28;45475;-49
2022/04/18 02:40:56;;;;;;;;;3.00;3.00;;;;;16.36;28.61;101031.25;5056267;28;45485;-49
2022/04/18 02:43:21;;;;;;;;;1.00;1.00;;;;;16.21;28.64;101026.22;5056316;28;45406;-49
2022/04/18 02:45:47;;;;;;;;;2.75;2.00;;;;;16.18;28.58;101012.00;5055092;28;45357;-49
2022/04/18 02:48:12;;;;;;;;;2.00;2.00;;;;;16.11;28.78;101029.59;5055033;28;45349;-49
2022/04/18 02:50:38;;;;;;;;;3.00;1.75;;;;;16.21;28.92;101033.66;5055702;28;46594;-49
2022/04/18 02:53:05;;;;;;;;;1.00;1.00;;;;;16.21;28.83;101039.19;5056065;28;45492;-47
2022/04/18 02:55:30;;;;;;;;;2.00;2.00;;;;;16.19;28.61;101033.91;5055855;28;45728;-51
2022/04/18 02:57:56;;;;;;;;;2.50;1.75;;;;;16.17;29.04;101038.84;5056220;28;45564;-49
2022/04/18 03:00:21;;;;;;;;;4.00;1.75;;;;;16.01;28.65;101039.59;5055321;28;46491;-49
2022/04/18 03:02:47;;;;;;;;;1.00;1.00;;;;;15.96;28.96;101035.59;5056318;28;45445;-53
2022/04/18 03:05:12;;;;;;;;;2.75;2.25;;;;;16.02;29.04;101035.72;5056248;28;45357;-48
2022/04/18 03:07:38;;;;;;;;;1.00;1.00;;;;;16.02;28.93;101036.59;5056343;28;45372;-52
2022/04/18 03:10:05;;;;;;;;;3.50;2.25;;;;;15.78;29.55;100991.41;5055049;28;45502;-52
2022/04/18 03:12:30;;;;;;;;;2.00;2.00;;;;;15.92;29.15;101011.44;5055776;28;45434;-49
2022/04/18 03:14:56;;;;;;;;;1.00;1.00;;;;;16.06;29.43;101035.00;5055868;28;45965;-50
2022/04/18 03:17:21;;;;;;;;;2.00;2.00;;;;;16.08;29.24;101029.22;5088915;27;45559;-49
2022/04/18 03:19:47;;;;;;;;;2.00;2.00;;;;;16.07;29.54;101024.78;5055600;28;45349;-47
2022/04/18 03:22:12;;;;;;;;;3.00;3.00;;;;;15.83;29.14;100997.06;5055693;28;45370;-48
2022/04/18 03:24:38;;;;;;;;;1.75;1.75;;;;;16.03;28.96;101027.19;5055942;28;45417;-49
2022/04/18 03:27:04;;;;;;;;;2.00;2.00;;;;;15.79;29.45;100993.94;5056133;28;45239;-48
2022/04/18 03:29:29;;;;;;;;;4.25;0.50;;;;;15.97;29.61;101023.44;5054565;28;46080;-48
2022/04/18 03:31:56;;;;;;;;;2.50;2.50;;;;;15.94;29.66;101023.09;5055251;28;45370;-49
2022/04/18 03:34:21;;;;;;;;;3.20;2.00;;;;;15.88;30.13;101018.47;5055486;28;45399;-47
2022/04/18 03:42:14;;;;;;;;;3.20;2.00;;;;;15.82;29.53;101018.38;5054812;28;45362;-47
2022/04/18 03:44:44;;;;;;;;;2.00;2.00;;;;;15.80;30.04;101023.31;5053720;28;45398;-48
2022/04/18 03:47:13;;;;;;;;;2.20;2.20;;;;;15.82;29.88;101023.06;5055949;28;45281;-52
2022/04/18 03:49:39;;;;;;;;;1.80;1.80;;;;;15.84;30.02;101018.97;5053335;28;47021;-48
2022/04/18 03:52:06;;;;;;;;;2.25;1.25;;;;;15.67;30.31;101018.00;5055282;28;45803;-49
2022/04/18 03:54:31;;;;;;;;;2.80;2.80;;;;;15.68;30.68;101019.69;5055731;28;45493;-47
2022/04/18 03:56:57;;;;;;;;;3.00;3.00;;;;;15.61;30.21;101018.97;5055593;28;45279;-49
2022/04/18 03:59:22;;;;;;;;;2.00;2.00;;;;;15.48;30.30;101014.50;5055374;28;45371;-47
2022/04/18 04:01:48;;;;;;;;;3.00;2.00;;;;;15.42;30.70;101022.66;5053705;28;45388;-48
2022/04/18 04:04:13;;;;;;;;;2.00;2.00;;;;;15.45;30.85;101013.91;5055203;28;45325;-50
2022/04/18 04:06:39;;;;;;;;;3.50;2.50;;;;;15.19;30.94;100987.50;5055274;28;45492;-48
2022/04/18 04:09:04;;;;;;;;;1.75;1.50;;;;;15.45;30.72;101024.13;5053321;28;46543;-49
2022/04/18 04:11:30;;;;;;;;;3.00;2.00;;;;;15.49;30.39;101013.41;5053427;28;45338;-51
2022/04/18 04:13:55;;;;;;;;;3.25;3.25;;;;;15.04;30.90;100944.59;5055068;28;45788;-48
2022/04/18 04:16:21;;;;;;;;;3.00;3.00;;;;;15.26;30.58;100993.78;5055072;28;45579;-51
2022/04/18 04:18:49;;;;;;;;;3.75;2.75;;;;;15.29;30.96;101009.91;5037177;28;46991;-49
2022/04/18 04:21:14;;;;;;;;;2.00;2.00;;;;;15.32;31.26;101011.38;5053259;28;45927;-49
2022/04/18 04:23:40;;;;;;;;;3.00;1.75;;;;;15.30;30.77;101008.81;5054055;28;45548;-50
2022/04/18 04:26:05;;;;;;;;;4.00;2.50;;;;;15.25;30.58;101016.13;5054946;28;45543;-48
2022/04/18 04:28:31;;;;;;;;;3.50;3.00;;;;;15.19;30.76;101006.88;5058379;28;46874;-49
2022/04/18 04:30:56;;;;;;;;;2.00;2.00;;;;;15.14;30.80;101007.59;5058307;28;45392;-54
2022/04/18 04:33:22;;;;;;;;;2.25;2.25;;;;;15.13;31.37;101007.81;5058108;28;46059;-50
2022/04/18 04:35:47;;;;;;;;;3.00;2.00;;;;;15.12;31.05;101003.38;5058644;28;45474;-48
2022/04/18 04:38:13;;;;;;;;;1.50;1.50;;;;;15.20;31.42;101007.72;5057955;28;45510;-50
2022/04/18 04:40:38;;;;;;;;;3.50;2.50;;;;;15.16;31.25;101018.41;5058246;28;45439;-50
2022/04/18 04:43:04;;;;;;;;;2.00;2.00;;;;;15.15;31.10;101022.22;5058187;28;45256;-50
2022/04/18 04:45:31;;;;;;;;;1.75;1.75;;;;;15.02;31.20;100996.50;5058241;28;45657;-50
2022/04/18 04:47:57;;;;;;;;;3.00;3.00;;;;;15.16;30.80;101018.41;5058034;28;46235;-52
2022/04/18 04:50:22;;;;;;;;;2.75;2.75;;;;;15.22;30.74;101023.00;5056564;28;45493;-48
2022/04/18 04:52:47;;;;;;;;;4.00;4.00;;;;;15.19;31.08;101020.69;5058368;28;45368;-52
2022/04/18 04:55:13;;;;;;;;;4.00;4.00;;;;;15.18;30.69;101016.25;5058063;28;45442;-49
2022/04/18 04:57:38;;;;;;;;;3.00;3.00;;;;;15.03;30.83;101000.94;5057828;28;45987;-49
2022/04/18 05:00:04;;;;;;;;;2.00;2.00;;;;;15.07;31.30;101012.38;5057663;28;45279;-48
2022/04/18 05:02:30;;;;;;;;;2.00;2.00;;;;;15.09;31.20;101015.75;5056532;28;45553;-52
2022/04/18 05:04:55;;;;;;;;;2.75;2.75;;;;;14.88;31.08;100978.41;5058381;28;45202;-49
2022/04/18 05:07:21;;;;;;;;;1.50;1.50;;;;;15.12;30.97;101011.66;5057513;28;46655;-49
2022/04/18 05:09:47;;;;;;;;;3.75;3.75;;;;;15.10;30.84;101014.66;5057641;28;45393;-49
2022/04/18 05:12:12;;;;;;;;;2.00;2.00;;;;;15.13;31.48;101022.50;5057425;28;45404;-48
2022/04/18 05:14:38;;;;;;;;;3.25;3.25;;;;;15.00;31.51;100997.81;5057774;28;45522;-48
2022/04/18 05:17:04;;;;;;;;;2.50;2.50;;;;;15.11;31.14;101027.38;5057250;28;46463;-48
2022/04/18 05:19:29;;;;;;;;;5.00;4.20;;;;;14.71;31.35;100962.47;5057333;28;45314;-49
2022/04/18 05:21:55;;;;;;;;;4.00;3.00;;;;;15.03;31.08;101019.44;5057686;28;45910;-48
2022/04/18 05:24:20;;;;;;;;;3.00;3.00;;;;;14.96;31.26;101008.50;5057610;28;45451;-48
2022/04/18 05:26:46;;;;;;;;;2.00;2.00;;;;;14.81;31.61;100988.72;5057098;28;45899;-49
2022/04/18 05:29:12;;;;;;;;;3.40;2.80;;;;;14.97;31.56;101010.19;5057377;28;45325;-48
2022/04/18 05:31:38;;;;;;;;;2.00;2.00;;;;;15.13;31.48;101029.94;5057216;28;45338;-52
2022/04/18 05:34:03;;;;;;;;;4.00;3.00;;;;;15.03;31.55;101024.97;5057383;28;45457;-49
2022/04/18 05:36:29;;;;;;;;;4.50;3.75;;;;;14.49;31.15;100937.28;5055662;28;46493;-48
2022/04/18 05:38:54;;;;;;;;;2.50;2.50;;;;;14.63;31.70;100988.50;4976289;27;46141;-52
2022/04/18 05:41:20;;;;;;;;;3.25;2.25;;;;;14.89;31.30;101035.38;5057198;28;45350;-49
2022/04/18 05:43:46;;;;;;;;;4.00;3.00;;;;;14.88;32.13;101040.06;5057423;28;45359;-53
2022/04/18 05:46:12;;;;;;;;;3.00;3.00;;;;;14.97;31.52;101045.25;5056890;28;46497;-53
2022/04/18 05:48:37;;;;;;;;;5.00;4.00;;;;;15.06;31.35;101054.06;5056822;28;45397;-50
2022/04/18 05:51:03;;;;;;;;;2.75;2.75;;;;;14.98;31.52;101047.78;5057158;28;45413;-50
2022/04/18 05:53:28;;;;;;;;;4.00;4.00;;;;;14.85;31.74;101020.34;5057252;28;45861;-48
2022/04/18 05:55:54;;;;;;;;;3.00;3.00;;;;;15.04;31.34;101054.28;5056870;28;46164;-48
2022/04/18 05:58:20;;;;;;;;;4.50;4.25;;;;;14.93;31.81;101061.47;5056604;28;45436;-49
2022/04/18 06:00:45;;;;;;;;;3.75;3.75;;;;;14.71;31.40;101014.97;5089492;27;45448;-50
2022/04/18 06:03:11;;;;;;;;;3.75;3.25;;;;;14.97;31.52;101057.16;5057342;28;45556;-48
2022/04/18 06:05:37;;;;;;;;;3.50;2.25;;;;;15.04;30.92;101065.34;5056874;28;45416;-51
2022/04/18 06:08:03;;;;;;;;;3.50;3.50;;;;;15.05;31.50;101064.25;5056964;28;45446;-48
2022/04/18 06:10:28;;;;;;;;;4.20;4.20;;;;;15.09;31.57;101067.44;5089673;27;45717;-47
2022/04/18 06:12:55;;;;;;;;;5.00;4.00;;;;;14.95;31.38;101034.44;5057000;28;45282;-49
2022/04/18 06:15:20;;;;;;;;;4.00;4.00;;;;;15.16;30.94;101060.72;5055286;28;45359;-47
2022/04/18 06:17:46;;;;;;;;;2.50;2.00;;;;;15.08;31.46;101063.81;5056997;28;45304;-49
2022/04/18 06:20:11;;;;;;;;;5.25;3.25;;;;;14.97;30.75;101064.59;5055844;28;45246;-47
2022/04/18 06:22:37;;;;;;;;;3.00;3.00;;;;;15.01;31.19;101072.19;5056976;28;45546;-47
2022/04/18 06:25:03;;;;;;;;;2.50;2.50;;;;;15.01;30.95;101066.66;5056495;28;46059;-47
2022/04/18 06:27:28;;;;;;;;;2.00;1.25;;;;;15.12;31.01;101066.94;5055366;28;45293;-49
2022/04/18 06:29:54;;;;;;;;;5.00;3.50;;;;;14.96;30.72;101063.78;5056466;28;45385;-52
2022/04/18 06:32:21;;;;;;;;;4.50;3.50;;;;;14.85;31.14;101059.88;5055679;28;45796;-50
2022/04/18 06:34:46;;;;;;;;;4.20;3.60;;;;;14.94;31.11;101076.97;5056415;28;46145;-48
2022/04/18 06:37:12;;;;;;;;;4.00;4.00;;;;;14.99;31.40;101063.28;5056274;28;45385;-49
2022/04/18 06:39:38;;;;;;;;;4.00;4.00;;;;;14.68;31.68;101037.50;5056797;28;45386;-49
2022/04/18 06:42:04;;;;;;;;;4.50;4.50;;;;;14.88;30.89;101072.38;5076599;27;45539;-50
2022/04/18 06:44:30;;;;;;;;;4.60;3.00;;;;;14.97;31.78;101059.94;5048268;28;46471;-48
2022/04/18 06:46:55;;;;;;;;;6.00;4.75;;;;;14.97;31.27;101065.44;5052874;28;45374;-47
2022/04/18 06:49:21;;;;;;;;;5.00;4.00;;;;;15.07;31.36;101073.19;5055767;28;45190;-49
2022/04/18 06:51:46;;;;;;;;;3.00;3.00;;;;;15.03;30.75;101064.53;5056631;28;45393;-47
2022/04/18 06:54:12;;;;;;;;;6.00;4.00;;;;;14.95;31.43;101064.00;5055730;28;45358;-52
2022/04/18 06:59:21;;;;;;;;;4.00;4.00;;;;;14.59;30.96;101014.91;5083949;27;45274;-49
2022/04/18 07:01:46;;;;;;;;;5.00;5.00;;;;;14.73;30.89;101056.19;5055800;28;45462;-49
2022/04/18 07:04:13;;;;;;;;;6.50;4.00;;;;;14.69;31.94;101064.09;5055333;28;45515;-51
2022/04/18 07:06:40;;;;;;;;;4.60;3.80;;;;;14.76;31.56;101059.34;5055866;28;45417;-49
2022/04/18 07:09:05;;;;;;;;;5.60;3.20;;;;;14.75;31.82;101060.44;5056023;28;45694;-51
2022/04/18 07:11:30;;;;;;;;;3.00;3.00;;;;;14.85;32.22;101051.59;5055750;28;45420;-49
2022/04/18 07:13:56;;;;;;;;;4.75;4.25;;;;;15.00;31.93;101064.97;5055500;28;45451;-47
2022/04/18 07:16:22;;;;;;;;;3.75;3.75;;;;;14.99;31.73;101062.47;5055152;28;45446;-49
2022/04/18 07:18:47;;;;;;;;;7.75;3.75;;;;;15.02;31.82;101062.84;5055801;28;45523;-48
2022/04/18 07:21:13;;;;;;;;;5.00;3.00;;;;;14.87;31.77;101026.47;5055766;28;45288;-50
2022/04/18 07:23:38;;;;;;;;;5.00;4.00;;;;;15.15;31.87;101063.69;5054123;28;45409;-50
2022/04/18 07:26:04;;;;;;;;;5.50;5.50;;;;;15.22;31.83;101060.84;5055455;28;45144;-49
2022/04/18 07:28:29;;;;;;;;;5.00;5.00;;;;;15.14;31.36;101049.06;5055195;28;45336;-49
2022/04/18 07:30:55;;;;;;;;;4.00;4.00;;;;;15.26;31.52;101060.13;5055883;28;45496;-49
2022/04/18 07:33:20;;;;;;;;;6.25;4.00;;;;;15.24;31.59;101062.31;5054936;28;45382;-49
2022/04/18 07:35:46;;;;;;;;;7.00;5.00;;;;;15.14;31.68;101049.06;5055271;28;45381;-50
2022/04/18 07:40:55;;;;;;;;;6.00;4.40;;;;;15.37;31.43;101069.53;5050740;28;45399;-52
2022/04/18 07:43:22;;;;;;;;;6.50;5.00;;;;;15.29;31.51;101059.69;5053771;28;45700;-49
2022/04/18 07:45:47;;;;;;;;;6.40;5.60;;;;;15.35;31.77;101073.63;5053927;28;45485;-50
2022/04/18 07:48:13;;;;;;;;;6.75;6.50;;;;;15.32;31.92;101067.50;5053715;28;45469;-54
2022/04/18 07:53:23;;;;;;;;;6.00;5.20;;;;;15.43;31.23;101065.84;5054844;28;45488;-52
2022/04/18 07:55:48;;;;;;;;;7.25;6.25;;;;;15.46;31.04;101075.59;5054916;28;45341;-51
2022/04/18 07:58:14;;;;;;;;;7.00;6.00;;;;;15.50;30.98;101074.03;5055004;28;45423;-49
2022/04/18 08:00:39;;;;;;;;;4.75;4.50;;;;;15.58;31.25;101062.63;5054914;28;45421;-48
2022/04/18 08:03:05;;;;;;;;;3.25;3.25;;;;;15.77;31.00;101068.06;5058039;28;45506;-50
2022/04/18 08:05:30;;;;;;;;;8.00;6.25;;;;;15.79;30.63;101070.59;5058656;28;45438;-47
2022/04/18 08:07:56;;;;;;;;;8.00;6.25;;;;;15.49;30.92;101063.22;5057860;28;45407;-49
2022/04/18 08:10:21;;;;;;;;;5.75;5.75;;;;;15.38;31.17;101062.94;5058980;28;45373;-48
2022/04/18 08:12:47;;;;;;;;;4.25;4.25;;;;;15.54;30.69;101069.69;5091231;27;45401;-49
2022/04/18 08:15:13;;;;;;;;;6.60;6.60;;;;;15.71;31.10;101077.31;5091076;27;45383;-50
2022/04/18 08:17:38;;;;;;;;;5.25;5.00;;;;;15.80;31.09;101070.34;5058500;28;45348;-48
2022/04/18 08:20:04;;;;;;;;;8.50;5.75;;;;;15.90;31.05;101068.94;5040911;28;45406;-48
2022/04/18 08:22:30;;;;;;;;;5.40;5.40;;;;;15.70;30.90;101017.53;5058076;28;45641;-48
2022/04/18 08:24:55;;;;;;;;;6.00;6.00;;;;;16.14;30.62;101072.56;5058456;28;45281;-50
2022/04/18 08:27:21;;;;;;;;;8.50;7.00;;;;;16.24;30.78;101055.34;5057143;28;45401;-47
2022/04/18 08:29:46;;;;;;;;;5.50;5.50;;;;;16.31;30.37;101067.13;5058596;28;45476;-50
2022/04/18 08:32:12;;;;;;;;;7.00;7.00;;;;;16.21;30.10;101058.59;5058611;28;45988;-47
2022/04/18 08:34:37;;;;;;;;;5.00;5.00;;;;;16.30;30.00;101059.91;5058239;28;45426;-50
2022/04/18 08:37:03;;;;;;;;;5.25;5.25;;;;;16.34;29.81;101060.28;5058422;28;45286;-51
2022/04/18 08:39:31;;;;;;;;;6.60;6.60;;;;;16.45;30.11;101066.88;5058714;28;45317;-48
2022/04/18 08:41:58;;;;;;;;;7.40;6.20;;;;;16.51;30.03;101060.34;5057878;28;47652;-49
2022/04/18 08:44:27;;;;;;;;;10.00;8.80;;;;;16.48;30.49;101060.81;5090554;27;45308;-49
2022/04/18 08:46:55;;;;;;;;;4.80;4.80;;;;;16.59;29.78;101059.97;5058183;28;45385;-51
2022/04/18 08:54:50;;;;;;;;;7.40;6.40;;;;;16.58;30.06;101046.34;5053190;28;45548;-53
2022/04/18 08:57:16;;;;;;;;;7.25;7.25;;;;;16.71;29.60;101059.94;5058502;28;45398;-48
2022/04/18 08:59:41;;;;;;;;;8.00;8.00;;;;;16.76;29.92;101056.44;5058083;28;45321;-49
2022/04/18 09:02:07;;;;;;;;;9.50;7.50;;;;;16.89;30.13;101056.16;5057412;28;45459;-50
2022/04/18 09:04:33;;;;;;;;;10.00;10.00;;;;;17.02;30.24;101051.44;5057905;28;45430;-52
2022/04/18 09:07:09;;;;;;;;;9.80;8.40;;;;;16.83;29.94;101018.34;5039548;28;45272;-46
2022/04/18 09:09:35;;;;;;;;;9.80;9.80;;;;;17.15;30.23;101053.91;5041300;28;45309;-51
2022/04/18 09:12:01;;;;;;;;;9.75;8.00;;;;;17.26;29.83;101060.47;5055983;28;45655;-50
2022/04/18 09:14:27;;;;;;;;;12.00;10.00;;;;;17.33;29.93;101046.44;5056309;28;45325;-48
2022/04/18 09:16:53;;;;;;;;;12.40;10.80;;;;;17.38;29.72;101052.09;5057576;28;45780;-49
2022/04/18 09:19:19;;;;;;;;;11.25;9.00;;;;;17.27;29.61;101015.00;5057372;28;45559;-49
2022/04/18 09:22:03;;;;;;;;;6.40;6.00;;;;;17.60;29.51;101052.19;5055805;28;46125;-49
2022/04/18 09:24:34;;;;;;;;;8.80;8.80;;;;;17.69;29.35;101054.53;5055533;28;45396;-50
2022/04/18 09:27:14;;;;;;;;;10.40;10.40;;;;;17.59;29.15;101027.44;5055715;28;45400;-52
2022/04/18 09:29:40;;;;;;;;;10.20;10.20;;;;;17.72;29.06;101035.44;5056141;28;45465;-48
2022/04/18 09:32:10;;;;;;;;;11.00;10.00;;;;;17.64;29.19;101008.13;5055728;28;46718;-48
2022/04/18 09:34:36;;;;;;;;;10.00;10.00;;;;;17.94;29.31;101042.16;5071422;28;45406;-49
2022/04/18 09:37:16;;;;;;;;;12.20;11.20;;;;;17.94;29.11;101031.06;5055852;28;45437;-49
2022/04/18 09:39:43;;;;;;;;;10.00;8.60;;;;;18.11;28.29;101040.25;5055912;28;45428;-51
2022/04/18 09:42:10;;;;;;;;;9.00;9.00;;;;;18.09;28.23;101038.81;5056577;28;45404;-52
2022/04/18 09:44:37;;;;;;;;;12.20;10.00;;;;;18.02;28.48;101038.94;5055769;28;45473;-54
2022/04/18 09:47:03;;;;;;;;;10.60;8.80;;;;;18.07;28.35;101046.53;5054171;28;45390;-50
2022/04/18 09:49:39;;;;;;;;;8.60;8.00;;;;;18.18;28.69;101045.59;5055339;28;45564;-46
2022/04/18 09:52:08;;;;;;;;;10.60;9.20;;;;;18.32;28.02;101040.53;5056417;28;46595;-51
2022/04/18 09:54:33;;;;;;;;;9.80;9.00;;;;;18.01;28.24;100976.16;5044809;28;45925;-51
2022/04/18 09:57:08;;;;;;;;;10.50;10.50;;;;;18.47;27.98;101039.03;5025104;28;45312;-49
2022/04/18 09:59:34;;;;;;;;;9.60;9.40;;;;;18.54;27.60;101039.69;5054817;28;45346;-52
2022/04/18 10:01:59;;;;;;;;;8.50;7.25;;;;;18.35;27.84;100997.50;5056116;28;45223;-49
2022/04/18 10:04:25;;;;;;;;;11.50;10.00;;;;;18.60;27.75;101033.09;5055633;28;45377;-51
2022/04/18 10:06:52;;;;;;;;;10.25;9.00;;;;;18.42;27.67;100989.78;5053924;28;45373;-52
2022/04/18 10:09:18;;;;;;;;;11.00;11.00;;;;;18.73;27.59;101026.28;5049636;28;45531;-48
2022/04/18 10:11:44;;;;;;;;;10.00;9.60;;;;;18.70;27.76;101035.16;5058050;28;46006;-56
2022/04/18 10:14:10;;;;;;;;;9.75;9.75;;;;;18.77;27.33;101032.16;5058918;28;45497;-48
2022/04/18 10:16:35;;;;;;;;;6.50;6.50;;;;;18.89;28.00;101024.50;5077163;28;45619;-50
2022/04/18 10:19:05;;;;;;;;;5.00;5.00;;;;;18.95;27.50;101026.25;5058740;28;45607;-48
2022/04/18 10:21:31;;;;;;;;;9.40;9.40;;;;;19.01;27.12;101020.75;5057856;28;45966;-48
2022/04/18 10:24:25;;;;;;;;;11.75;10.25;;;;;19.08;27.16;101016.69;5056574;28;45525;-52
2022/04/18 10:27:28;;;;;;;;;9.00;7.60;;;;;19.13;27.23;101018.69;5075366;28;45340;-49
2022/04/18 10:29:54;;;;;;;;;7.00;7.00;;;;;19.15;27.08;101012.88;5077037;28;45675;-52
2022/04/18 10:32:22;;;;;;;;;9.50;9.00;;;;;19.20;26.89;101022.09;5057619;28;46038;-46
2022/04/18 10:34:51;;;;;;;;;11.00;9.60;;;;;19.34;27.06;101027.22;5075113;28;45376;-50
2022/04/18 10:37:17;;;;;;;;;8.80;8.80;;;;;19.45;26.76;101017.88;5058387;28;45496;-50
2022/04/18 10:39:43;;;;;;;;;8.80;8.80;;;;;19.43;26.39;101017.28;5058244;28;45926;-49
2022/04/18 10:42:21;;;;;;;;;7.25;7.25;;;;;19.32;26.68;101023.88;5075336;28;45888;-50
2022/04/18 10:45:16;;;;;;;;;11.80;11.20;;;;;19.46;26.38;101016.75;5056345;27;46235;-49
2022/04/18 10:48:01;;;;;;;;;7.40;6.40;;;;;19.54;25.95;101018.22;5060263;28;45396;-52
2022/04/18 10:50:38;;;;;;;;;7.20;7.20;;;;;19.66;26.38;101017.16;5075076;28;45348;-55
2022/04/18 10:53:13;;;;;;;;;8.60;7.40;;;;;19.77;26.01;101002.22;5074848;28;46562;-52
2022/04/18 10:56:00;;;;;;;;;7.00;7.00;;;;;19.82;25.73;101002.28;5075077;28;45589;-50
2022/04/18 10:58:30;;;;;;;;;8.00;8.00;;;;;19.86;25.70;100997.81;5058612;28;45407;-53
2022/04/18 11:00:57;;;;;;;;;8.80;6.20;;;;;19.90;25.77;100998.13;5086424;27;45540;-53
2022/04/18 11:03:38;;;;;;;;;6.60;6.40;;;;;19.98;25.76;100994.88;5075448;28;46537;-56
2022/04/18 11:06:10;;;;;;;;;8.00;6.80;;;;;19.99;25.80;100998.47;5075585;28;45330;-54
2022/04/18 11:08:37;;;;;;;;;8.20;8.20;;;;;19.90;25.17;100970.25;5066088;28;45499;-51
2022/04/18 11:11:07;;;;;;;;;8.60;8.00;;;;;20.10;25.29;100993.81;5090469;27;45573;-53
2022/04/18 11:13:33;;;;;;;;;11.20;9.00;;;;;20.17;25.44;100998.03;5036843;28;46505;-54
2022/04/18 11:16:20;;;;;;;;;7.60;6.40;;;;;20.18;25.36;100996.09;5062758;28;45552;-50
2022/04/18 11:19:16;;;;;;;;;7.00;7.00;;;;;20.04;25.38;100956.75;5075858;28;45367;-54
2022/04/18 11:24:38;;;;;;;;;7.40;6.20;;;;;20.40;24.41;100990.34;5074134;28;46008;-50
2022/04/18 11:27:07;;;;;;;;;4.40;3.80;;;;;20.56;24.34;100984.81;5075571;28;45397;-54
2022/04/18 11:29:33;;;;;;;;;5.00;5.00;;;;;20.72;23.99;100980.13;5075638;28;45685;-53
2022/04/18 11:31:59;;;;;;;;;4.75;4.75;;;;;20.65;23.99;100946.91;5057457;28;45465;-51
2022/04/18 11:34:26;;;;;;;;;4.00;4.00;;;;;20.94;23.23;100953.97;5056942;28;46376;-53
2022/04/18 11:36:54;;;;;;;;;4.60;4.60;;;;;21.14;23.04;100972.69;5074926;28;45453;-52
2022/04/18 11:39:20;;;;;;;;;4.20;4.20;;;;;21.19;23.00;100955.13;5057727;28;45781;-49
2022/04/18 11:41:46;;;;;;;;;4.00;4.00;;;;;21.45;22.95;100971.88;5057652;28;45369;-55
2022/04/18 11:44:12;;;;;;;;;5.25;5.25;;;;;21.51;22.78;100971.56;5074056;27;45373;-51
2022/04/18 11:46:38;;;;;;;;;3.60;3.60;;;;;21.67;22.58;100963.19;5038086;27;45549;-50
2022/04/18 11:49:04;;;;;;;;;3.75;3.75;;;;;21.75;21.84;100956.19;5036529;28;45575;-53
2022/04/18 11:51:37;;;;;;;;;3.50;3.50;;;;;21.74;21.71;100963.75;5055192;28;45576;-50